Gwinn, Michigan
Current Conditions -  °F | °C
As of 4:50 PM on Monday 20 Oct 2014 (Local Time) from KSAW Reporting Station
Overcast Overcast  
Wind Chill: 36°   Ceiling: 1400
Heat Index: 43°   Visibility: 10mi
Dew Point: 39°   Wind: 14mph
Humidity: 87%   Direction: 340°NNW
Pressure: 29.9"   Gusts: NA
Location:  46.28°N, 87.44°W
Report Text: KSAW 202050Z 34012KT 10SM OVC014 06/04 A2990
Loading
Personal Weather Stations






























Interactive Weather Map
Tropical Storm Tracking
New forecast layout! Learn more

10-Day Weather Forecast

Advertisements
Track Severe Weather on mobile